sensor_id;sensor_type;location;lat;lon;timestamp;pressure;altitude;pressure_sealevel;temperature;humidity
17383;BME280;8809;51.892;8.384;2023-07-20T00:00:46;100330.69;;;17.66;100.00
17383;BME280;8809;51.892;8.384;2023-07-20T00:03:14;100333.34;;;17.66;100.00
17383;BME280;8809;51.892;8.384;2023-07-20T00:05:45;100328.94;;;17.65;100.00
17383;BME280;8809;51.892;8.384;2023-07-20T00:08:12;100335.94;;;17.63;100.00
17383;BME280;8809;51.892;8.384;2023-07-20T00:10:41;100337.63;;;17.61;100.00
17383;BME280;8809;51.892;8.384;2023-07-20T00:13:09;100328.78;;;17.54;100.00
17383;BME280;8809;51.892;8.384;2023-07-20T00:15:36;100330.50;;;17.48;100.00
17383;BME280;8809;51.892;8.384;2023-07-20T00:18:03;100323.41;;;17.43;100.00
17383;BME280;8809;51.892;8.384;2023-07-20T00:20:30;100323.41;;;17.43;100.00
17383;BME280;8809;51.892;8.384;2023-07-20T00:22:57;100330.44;;;17.41;100.00
17383;BME280;8809;51.892;8.384;2023-07-20T00:25:25;100328.66;;;17.37;100.00
17383;BME280;8809;51.892;8.384;2023-07-20T00:27:53;100326.00;;;17.36;100.00
17383;BME280;8809;51.892;8.384;2023-07-20T00:30:20;100325.09;;;17.35;100.00
17383;BME280;8809;51.892;8.384;2023-07-20T00:32:47;100338.31;;;17.37;100.00
17383;BME280;8809;51.892;8.384;2023-07-20T00:35:14;100325.09;;;17.35;100.00
17383;BME280;8809;51.892;8.384;2023-07-20T00:37:41;100323.41;;;17.39;100.00
17383;BME280;8809;51.892;8.384;2023-07-20T00:40:09;100321.63;;;17.38;100.00
17383;BME280;8809;51.892;8.384;2023-07-20T00:42:36;100314.59;;;17.38;100.00
17383;BME280;8809;51.892;8.384;2023-07-20T00:45:20;100316.31;;;17.35;100.00
17383;BME280;8809;51.892;8.384;2023-07-20T00:47:47;100316.25;;;17.32;100.00
17383;BME280;8809;51.892;8.384;2023-07-20T00:50:15;100320.63;;;17.27;100.00
17383;BME280;8809;51.892;8.384;2023-07-20T00:52:42;100317.06;;;17.23;100.00
17383;BME280;8809;51.892;8.384;2023-07-20T00:55:10;100324.06;;;17.18;100.00
17383;BME280;8809;51.892;8.384;2023-07-20T00:57:38;100316.09;;;17.14;100.00
17383;BME280;8809;51.892;8.384;2023-07-20T01:00:06;100307.28;;;17.13;100.00
17383;BME280;8809;51.892;8.384;2023-07-20T01:02:35;100314.31;;;17.10;100.00
17383;BME280;8809;51.892;8.384;2023-07-20T01:05:03;100316.00;;;17.06;100.00
17383;BME280;8809;51.892;8.384;2023-07-20T01:07:35;100319.47;;;17.02;100.00
17383;BME280;8809;51.892;8.384;2023-07-20T01:10:10;100309.81;;;17.01;100.00
17383;BME280;8809;51.892;8.384;2023-07-20T01:12:41;100302.78;;;17.03;100.00
17383;BME280;8809;51.892;8.384;2023-07-20T01:15:09;100308.09;;;17.04;100.00
17383;BME280;8809;51.892;8.384;2023-07-20T01:17:41;100313.41;;;17.08;100.00
17383;BME280;8809;51.892;8.384;2023-07-20T01:20:13;100314.28;;;17.08;100.00
17383;BME280;8809;51.892;8.384;2023-07-20T01:23:04;100314.28;;;17.11;100.00
17383;BME280;8809;51.892;8.384;2023-07-20T01:25:48;100313.44;;;17.14;100.00
17383;BME280;8809;51.892;8.384;2023-07-20T01:28:37;100311.69;;;17.13;100.00
17383;BME280;8809;51.892;8.384;2023-07-20T01:31:18;100318.72;;;17.14;100.00
17383;BME280;8809;51.892;8.384;2023-07-20T01:33:48;100312.53;;;17.12;100.00
17383;BME280;8809;51.892;8.384;2023-07-20T01:36:18;100321.31;;;17.09;100.00
17383;BME280;8809;51.892;8.384;2023-07-20T01:38:46;100316.00;;;17.06;100.00
17383;BME280;8809;51.892;8.384;2023-07-20T01:41:14;100304.50;;;16.98;100.00
17383;BME280;8809;51.892;8.384;2023-07-20T01:43:42;100308.81;;;16.93;100.00
17383;BME280;8809;51.892;8.384;2023-07-20T01:46:09;100301.72;;;16.86;100.00
17383;BME280;8809;51.892;8.384;2023-07-20T01:48:38;100295.53;;;16.82;100.00
17383;BME280;8809;51.892;8.384;2023-07-20T01:51:05;100306.06;;;16.79;100.00
17383;BME280;8809;51.892;8.384;2023-07-20T01:53:32;100298.94;;;16.74;100.00
17383;BME280;8809;51.892;8.384;2023-07-20T01:55:59;100299.81;;;16.73;100.00
17383;BME280;8809;51.892;8.384;2023-07-20T01:58:26;100298.03;;;16.70;100.00
17383;BME280;8809;51.892;8.384;2023-07-20T02:00:53;100298.03;;;16.70;100.00
17383;BME280;8809;51.892;8.384;2023-07-20T02:03:21;100298.03;;;16.68;100.00
17383;BME280;8809;51.892;8.384;2023-07-20T02:05:51;100302.31;;;16.63;100.00
17383;BME280;8809;51.892;8.384;2023-07-20T02:08:18;100304.91;;;16.60;100.00
17383;BME280;8809;51.892;8.384;2023-07-20T02:10:46;100306.72;;;16.61;100.00
17383;BME280;8809;51.892;8.384;2023-07-20T02:13:14;100307.50;;;16.57;100.00
17383;BME280;8809;51.892;8.384;2023-07-20T02:15:42;100303.94;;;16.55;100.00
17383;BME280;8809;51.892;8.384;2023-07-20T02:18:09;100303.03;;;16.50;100.00
17383;BME280;8809;51.892;8.384;2023-07-20T02:20:36;100298.66;;;16.51;100.00
17383;BME280;8809;51.892;8.384;2023-07-20T02:23:04;100303.03;;;16.53;100.00
17383;BME280;8809;51.892;8.384;2023-07-20T02:25:31;100296.03;;;16.52;100.00
17383;BME280;8809;51.892;8.384;2023-07-20T02:27:59;100292.50;;;16.53;100.00
17383;BME280;8809;51.892;8.384;2023-07-20T02:30:26;100291.69;;;16.57;100.00
17383;BME280;8809;51.892;8.384;2023-07-20T02:32:53;100291.66;;;16.54;100.00
17383;BME280;8809;51.892;8.384;2023-07-20T02:35:26;100290.78;;;16.55;100.00
17383;BME280;8809;51.892;8.384;2023-07-20T02:37:54;100284.59;;;16.53;100.00
17383;BME280;8809;51.892;8.384;2023-07-20T02:40:22;100290.84;;;16.58;100.00
17383;BME280;8809;51.892;8.384;2023-07-20T02:42:49;100294.38;;;16.60;100.00
17383;BME280;8809;51.892;8.384;2023-07-20T02:45:17;100288.28;;;16.63;100.00
17383;BME280;8809;51.892;8.384;2023-07-20T02:47:44;100289.19;;;16.65;100.00
17383;BME280;8809;51.892;8.384;2023-07-20T02:50:11;100298.91;;;16.69;100.00
17383;BME280;8809;51.892;8.384;2023-07-20T02:52:39;100297.97;;;16.65;100.00
17383;BME280;8809;51.892;8.384;2023-07-20T02:55:07;100302.34;;;16.65;100.00
17383;BME280;8809;51.892;8.384;2023-07-20T02:57:36;100303.22;;;16.62;100.00
17383;BME280;8809;51.892;8.384;2023-07-20T03:00:04;100305.00;;;16.66;100.00
17383;BME280;8809;51.892;8.384;2023-07-20T03:02:32;100300.59;;;16.62;100.00
17383;BME280;8809;51.892;8.384;2023-07-20T03:05:00;100300.59;;;16.64;100.00
17383;BME280;8809;51.892;8.384;2023-07-20T03:07:28;100302.31;;;16.63;100.00
17383;BME280;8809;51.892;8.384;2023-07-20T03:09:56;100307.66;;;16.66;100.00
17383;BME280;8809;51.892;8.384;2023-07-20T03:12:23;100304.13;;;16.66;100.00
17383;BME280;8809;51.892;8.384;2023-07-20T03:14:52;100307.66;;;16.68;100.00
17383;BME280;8809;51.892;8.384;2023-07-20T03:17:19;100307.66;;;16.66;100.00
17383;BME280;8809;51.892;8.384;2023-07-20T03:19:47;100312.00;;;16.61;100.00
17383;BME280;8809;51.892;8.384;2023-07-20T03:22:14;100302.34;;;16.62;100.00
17383;BME280;8809;51.892;8.384;2023-07-20T03:24:42;100303.16;;;16.59;100.00
17383;BME280;8809;51.892;8.384;2023-07-20T03:27:09;100318.88;;;16.55;100.00
17383;BME280;8809;51.892;8.384;2023-07-20T03:29:36;100322.38;;;16.52;100.00
17383;BME280;8809;51.892;8.384;2023-07-20T03:32:06;100314.47;;;16.54;100.00
17383;BME280;8809;51.892;8.384;2023-07-20T03:34:33;100321.44;;;16.49;100.00
17383;BME280;8809;51.892;8.384;2023-07-20T03:37:00;100320.56;;;16.48;100.00
17383;BME280;8809;51.892;8.384;2023-07-20T03:39:30;100321.47;;;16.50;100.00
17383;BME280;8809;51.892;8.384;2023-07-20T03:41:57;100323.19;;;16.48;100.00
17383;BME280;8809;51.892;8.384;2023-07-20T03:44:24;100320.56;;;16.48;100.00
17383;BME280;8809;51.892;8.384;2023-07-20T03:46:52;100318.84;;;16.53;100.00
17383;BME280;8809;51.892;8.384;2023-07-20T03:49:20;100320.56;;;16.48;100.00
17383;BME280;8809;51.892;8.384;2023-07-20T03:51:47;100323.25;;;16.53;100.00
17383;BME280;8809;51.892;8.384;2023-07-20T03:54:15;100325.88;;;16.51;100.00
17383;BME280;8809;51.892;8.384;2023-07-20T03:56:42;100318.91;;;16.56;100.00
17383;BME280;8809;51.892;8.384;2023-07-20T03:59:09;100312.66;;;16.48;100.00
17383;BME280;8809;51.892;8.384;2023-07-20T04:01:36;100323.91;;;16.38;100.00
17383;BME280;8809;51.892;8.384;2023-07-20T04:04:07;100325.72;;;16.41;100.00
17383;BME280;8809;51.892;8.384;2023-07-20T04:06:35;100318.84;;;16.52;100.00
17383;BME280;8809;51.892;8.384;2023-07-20T04:09:03;100319.63;;;16.45;100.00
17383;BME280;8809;51.892;8.384;2023-07-20T04:11:30;100315.25;;;16.47;100.00
17383;BME280;8809;51.892;8.384;2023-07-20T04:13:58;100324.75;;;16.36;100.00
17383;BME280;8809;51.892;8.384;2023-07-20T04:16:25;100331.78;;;16.35;100.00
17383;BME280;8809;51.892;8.384;2023-07-20T04:18:55;100333.50;;;16.34;100.00
17383;BME280;8809;51.892;8.384;2023-07-20T04:21:23;100333.53;;;16.36;100.00
17383;BME280;8809;51.892;8.384;2023-07-20T04:23:51;100335.25;;;16.34;100.00
17383;BME280;8809;51.892;8.384;2023-07-20T04:26:18;100337.88;;;16.31;100.00
17383;BME280;8809;51.892;8.384;2023-07-20T04:28:46;100347.53;;;16.30;100.00
17383;BME280;8809;51.892;8.384;2023-07-20T04:31:15;100343.13;;;16.31;100.00
17383;BME280;8809;51.892;8.384;2023-07-20T04:33:43;100341.38;;;16.30;100.00
17383;BME280;8809;51.892;8.384;2023-07-20T04:36:10;100347.53;;;16.30;100.00
17383;BME280;8809;51.892;8.384;2023-07-20T04:38:38;100345.78;;;16.34;100.00
17383;BME280;8809;51.892;8.384;2023-07-20T04:41:06;100355.50;;;16.38;100.00
17383;BME280;8809;51.892;8.384;2023-07-20T04:43:34;100359.91;;;16.38;100.00
17383;BME280;8809;51.892;8.384;2023-07-20T04:46:01;100368.66;;;16.37;100.00
17383;BME280;8809;51.892;8.384;2023-07-20T04:48:29;100369.47;;;16.31;100.00
17383;BME280;8809;51.892;8.384;2023-07-20T04:50:56;100368.56;;;16.30;100.00
17383;BME280;8809;51.892;8.384;2023-07-20T04:53:23;100376.38;;;16.26;100.00
17383;BME280;8809;51.892;8.384;2023-07-20T04:55:50;100378.13;;;16.24;100.00
17383;BME280;8809;51.892;8.384;2023-07-20T04:58:20;100373.63;;;16.17;100.00
17383;BME280;8809;51.892;8.384;2023-07-20T05:00:48;100381.53;;;16.18;100.00
17383;BME280;8809;51.892;8.384;2023-07-20T05:03:15;100380.78;;;16.25;100.00
17383;BME280;8809;51.892;8.384;2023-07-20T05:05:42;100379.88;;;16.23;100.00
17383;BME280;8809;51.892;8.384;2023-07-20T05:08:09;100385.22;;;16.29;100.00
17383;BME280;8809;51.892;8.384;2023-07-20T05:10:37;100382.53;;;16.26;100.00
17383;BME280;8809;51.892;8.384;2023-07-20T05:13:04;100383.41;;;16.25;100.00
17383;BME280;8809;51.892;8.384;2023-07-20T05:15:34;100392.13;;;16.21;100.00
17383;BME280;8809;51.892;8.384;2023-07-20T05:18:01;100396.50;;;16.21;100.00
17383;BME280;8809;51.892;8.384;2023-07-20T05:20:29;100390.41;;;16.25;100.00
17383;BME280;8809;51.892;8.384;2023-07-20T05:22:57;100379.03;;;16.26;100.00
17383;BME280;8809;51.892;8.384;2023-07-20T05:25:24;100374.72;;;16.31;100.00
17383;BME280;8809;51.892;8.384;2023-07-20T05:27:51;100374.69;;;16.28;100.00
17383;BME280;8809;51.892;8.384;2023-07-20T05:30:21;100376.44;;;16.29;100.00
17383;BME280;8809;51.892;8.384;2023-07-20T05:32:49;100385.97;;;16.21;100.00
17383;BME280;8809;51.892;8.384;2023-07-20T05:35:19;100387.84;;;16.28;100.00
17383;BME280;8809;51.892;8.384;2023-07-20T05:37:47;100390.66;;;16.40;100.00
17383;BME280;8809;51.892;8.384;2023-07-20T05:40:14;100398.41;;;16.29;100.00
17383;BME280;8809;51.892;8.384;2023-07-20T05:42:47;100393.25;;;16.37;100.00
17383;BME280;8809;51.892;8.384;2023-07-20T05:45:15;100398.63;;;16.43;100.00
17383;BME280;8809;51.892;8.384;2023-07-20T05:47:42;100403.03;;;16.47;100.00
17383;BME280;8809;51.892;8.384;2023-07-20T05:50:11;100402.28;;;16.56;100.00
17383;BME280;8809;51.892;8.384;2023-07-20T05:52:39;100393.41;;;16.49;100.00
17383;BME280;8809;51.892;8.384;2023-07-20T05:55:07;100400.41;;;16.47;100.00
17383;BME280;8809;51.892;8.384;2023-07-20T05:57:34;100403.88;;;16.45;100.00
17383;BME280;8809;51.892;8.384;2023-07-20T06:00:06;100406.59;;;16.49;100.00
17383;BME280;8809;51.892;8.384;2023-07-20T06:02:36;100409.25;;;16.51;100.00
17383;BME280;8809;51.892;8.384;2023-07-20T06:05:04;100411.91;;;16.52;100.00
17383;BME280;8809;51.892;8.384;2023-07-20T06:07:36;100425.81;;;16.45;100.00
17383;BME280;8809;51.892;8.384;2023-07-20T06:10:04;100406.59;;;16.49;100.00
17383;BME280;8809;51.892;8.384;2023-07-20T06:12:32;100410.09;;;16.48;100.00
17383;BME280;8809;51.892;8.384;2023-07-20T06:15:02;100420.59;;;16.47;100.00
17383;BME280;8809;51.892;8.384;2023-07-20T06:17:29;100417.91;;;16.42;100.00
17383;BME280;8809;51.892;8.384;2023-07-20T06:19:56;100426.63;;;16.40;100.00
17383;BME280;8809;51.892;8.384;2023-07-20T06:22:23;100431.00;;;16.39;100.00
17383;BME280;8809;51.892;8.384;2023-07-20T06:24:52;100424.84;;;16.37;100.00
17383;BME280;8809;51.892;8.384;2023-07-20T06:27:19;100426.53;;;16.35;100.00
17383;BME280;8809;51.892;8.384;2023-07-20T06:29:46;100429.31;;;16.43;100.00
17383;BME280;8809;51.892;8.384;2023-07-20T06:32:13;100438.97;;;16.42;100.00
17383;BME280;8809;51.892;8.384;2023-07-20T06:34:40;100442.47;;;16.44;100.00
17383;BME280;8809;51.892;8.384;2023-07-20T06:37:08;100447.84;;;16.49;100.00
17383;BME280;8809;51.892;8.384;2023-07-20T06:39:35;100448.63;;;16.43;100.00
17383;BME280;8809;51.892;8.384;2023-07-20T06:42:04;100441.66;;;16.47;100.00
17383;BME280;8809;51.892;8.384;2023-07-20T06:44:32;100450.50;;;16.50;100.00
17383;BME280;8809;51.892;8.384;2023-07-20T06:47:01;100447.81;;;16.47;100.00
17383;BME280;8809;51.892;8.384;2023-07-20T06:49:28;100440.78;;;16.46;100.00
17383;BME280;8809;51.892;8.384;2023-07-20T06:51:55;100443.47;;;16.49;100.00
17383;BME280;8809;51.892;8.384;2023-07-20T06:54:22;100445.19;;;16.47;100.00
17383;BME280;8809;51.892;8.384;2023-07-20T06:56:50;100444.28;;;16.47;100.00
17383;BME280;8809;51.892;8.384;2023-07-20T06:59:21;100448.59;;;16.40;100.00
17383;BME280;8809;51.892;8.384;2023-07-20T07:01:49;100453.03;;;16.43;100.00
17383;BME280;8809;51.892;8.384;2023-07-20T07:04:17;100455.72;;;16.47;100.00
17383;BME280;8809;51.892;8.384;2023-07-20T07:06:44;100458.34;;;16.47;100.00
17383;BME280;8809;51.892;8.384;2023-07-20T07:09:11;100462.47;;;16.30;100.00
17383;BME280;8809;51.892;8.384;2023-07-20T07:11:40;100459.00;;;16.32;100.00
17383;BME280;8809;51.892;8.384;2023-07-20T07:14:09;100456.28;;;16.28;100.00
17383;BME280;8809;51.892;8.384;2023-07-20T07:16:39;100460.72;;;16.30;100.00
17383;BME280;8809;51.892;8.384;2023-07-20T07:19:06;100466.09;;;16.38;100.00
17383;BME280;8809;51.892;8.384;2023-07-20T07:21:34;100469.72;;;16.46;100.00
17383;BME280;8809;51.892;8.384;2023-07-20T07:24:01;100472.38;;;16.46;100.00
17383;BME280;8809;51.892;8.384;2023-07-20T07:26:29;100474.13;;;16.47;100.00
17383;BME280;8809;51.892;8.384;2023-07-20T07:28:57;100474.13;;;16.46;100.00
17383;BME280;8809;51.892;8.384;2023-07-20T07:31:24;100479.31;;;16.41;100.00
17383;BME280;8809;51.892;8.384;2023-07-20T07:33:53;100483.66;;;16.39;100.00
17383;BME280;8809;51.892;8.384;2023-07-20T07:36:21;100479.22;;;16.37;100.00
17383;BME280;8809;51.892;8.384;2023-07-20T07:38:50;100487.09;;;16.35;100.00
17383;BME280;8809;51.892;8.384;2023-07-20T07:41:17;100484.47;;;16.35;100.00
17383;BME280;8809;51.892;8.384;2023-07-20T07:43:44;100489.75;;;16.37;100.00
17383;BME280;8809;51.892;8.384;2023-07-20T07:46:11;100495.13;;;16.41;100.00
17383;BME280;8809;51.892;8.384;2023-07-20T07:48:39;100495.13;;;16.41;100.00
17383;BME280;8809;51.892;8.384;2023-07-20T07:51:08;100490.81;;;16.46;100.00
17383;BME280;8809;51.892;8.384;2023-07-20T07:53:35;100492.56;;;16.47;100.00
17383;BME280;8809;51.892;8.384;2023-07-20T07:56:04;100497.84;;;16.47;100.00
17383;BME280;8809;51.892;8.384;2023-07-20T07:58:33;100496.19;;;16.52;100.00
17383;BME280;8809;51.892;8.384;2023-07-20T08:01:01;100492.66;;;16.53;100.00
17383;BME280;8809;51.892;8.384;2023-07-20T08:03:30;100495.44;;;16.61;100.00
17383;BME280;8809;51.892;8.384;2023-07-20T08:05:57;100498.13;;;16.62;100.00
17383;BME280;8809;51.892;8.384;2023-07-20T08:08:27;100502.53;;;16.65;100.00
17383;BME280;8809;51.892;8.384;2023-07-20T08:10:54;100503.53;;;16.72;100.00
17383;BME280;8809;51.892;8.384;2023-07-20T08:13:21;100503.56;;;16.75;100.00
17383;BME280;8809;51.892;8.384;2023-07-20T08:15:50;100497.63;;;16.88;100.00
17383;BME280;8809;51.892;8.384;2023-07-20T08:18:17;100498.59;;;16.94;100.00
17383;BME280;8809;51.892;8.384;2023-07-20T08:20:45;100505.56;;;16.92;100.00
17383;BME280;8809;51.892;8.384;2023-07-20T08:23:13;100503.81;;;16.93;100.00
17383;BME280;8809;51.892;8.384;2023-07-20T08:25:42;100504.84;;;17.01;100.00
17383;BME280;8809;51.892;8.384;2023-07-20T08:28:10;100504.06;;;17.08;100.00
17383;BME280;8809;51.892;8.384;2023-07-20T08:30:41;100506.78;;;17.14;100.00
17383;BME280;8809;51.892;8.384;2023-07-20T08:33:09;100502.47;;;17.19;100.00
17383;BME280;8809;51.892;8.384;2023-07-20T08:35:37;100517.31;;;17.14;100.00
17383;BME280;8809;51.892;8.384;2023-07-20T08:38:04;100515.59;;;17.16;100.00
17383;BME280;8809;51.892;8.384;2023-07-20T08:40:32;100509.50;;;17.22;100.00
17383;BME280;8809;51.892;8.384;2023-07-20T08:43:01;100512.25;;;17.28;100.00
17383;BME280;8809;51.892;8.384;2023-07-20T08:45:29;100507.91;;;17.33;100.00
17383;BME280;8809;51.892;8.384;2023-07-20T08:48:00;100503.63;;;17.42;100.00
17383;BME280;8809;51.892;8.384;2023-07-20T08:50:31;100517.78;;;17.51;100.00
17383;BME280;8809;51.892;8.384;2023-07-20T08:52:59;100511.72;;;17.59;100.00
17383;BME280;8809;51.892;8.384;2023-07-20T08:55:27;100523.31;;;17.67;100.00
17383;BME280;8809;51.892;8.384;2023-07-20T08:57:56;100521.44;;;17.62;100.00
17383;BME280;8809;51.892;8.384;2023-07-20T09:00:25;100528.59;;;17.69;100.00
17383;BME280;8809;51.892;8.384;2023-07-20T09:02:54;100526.00;;;17.72;100.00
17383;BME280;8809;51.892;8.384;2023-07-20T09:05:23;100528.75;;;17.83;100.00
17383;BME280;8809;51.892;8.384;2023-07-20T09:07:51;100531.50;;;17.93;100.00
17383;BME280;8809;51.892;8.384;2023-07-20T09:10:20;100528.13;;;18.08;100.00
17383;BME280;8809;51.892;8.384;2023-07-20T09:12:48;100523.00;;;18.22;100.00
17383;BME280;8809;51.892;8.384;2023-07-20T09:15:16;100526.72;;;18.43;100.00
17383;BME280;8809;51.892;8.384;2023-07-20T09:17:47;100529.53;;;18.60;100.00
17383;BME280;8809;51.892;8.384;2023-07-20T09:20:21;100527.88;;;18.76;100.00
17383;BME280;8809;51.892;8.384;2023-07-20T09:22:51;100530.50;;;18.74;100.00
17383;BME280;8809;51.892;8.384;2023-07-20T09:25:19;100541.97;;;18.72;100.00
17383;BME280;8809;51.892;8.384;2023-07-20T09:27:48;100540.28;;;18.87;100.00
17383;BME280;8809;51.892;8.384;2023-07-20T09:30:16;100543.94;;;19.06;100.00
17383;BME280;8809;51.892;8.384;2023-07-20T09:32:45;100540.44;;;19.13;100.00
17383;BME280;8809;51.892;8.384;2023-07-20T09:35:14;100535.28;;;19.32;100.00
17383;BME280;8809;51.892;8.384;2023-07-20T09:37:46;100538.94;;;19.49;100.00
17383;BME280;8809;51.892;8.384;2023-07-20T09:40:18;100537.22;;;19.66;100.00
17383;BME280;8809;51.892;8.384;2023-07-20T09:42:47;100540.75;;;19.63;100.00
17383;BME280;8809;51.892;8.384;2023-07-20T09:45:15;100546.88;;;19.53;100.00
17383;BME280;8809;51.892;8.384;2023-07-20T09:47:42;100537.09;;;19.46;100.00
17383;BME280;8809;51.892;8.384;2023-07-20T09:50:09;100542.38;;;19.42;100.00
17383;BME280;8809;51.892;8.384;2023-07-20T09:52:41;100541.59;;;19.56;100.00
17383;BME280;8809;51.892;8.384;2023-07-20T09:55:12;100545.03;;;19.46;100.00
17383;BME280;8809;51.892;8.384;2023-07-20T09:57:42;100545.19;;;19.68;100.00
17383;BME280;8809;51.892;8.384;2023-07-20T10:00:11;100549.69;;;19.96;100.00
17383;BME280;8809;51.892;8.384;2023-07-20T10:02:42;100542.69;;;20.25;100.00
17383;BME280;8809;51.892;8.384;2023-07-20T10:05:16;100536.53;;;20.45;100.00
17383;BME280;8809;51.892;8.384;2023-07-20T10:07:47;100537.41;;;20.39;100.00
17383;BME280;8809;51.892;8.384;2023-07-20T10:10:16;100541.78;;;20.20;100.00
17383;BME280;8809;51.892;8.384;2023-07-20T10:12:46;100541.75;;;20.07;100.00
17383;BME280;8809;51.892;8.384;2023-07-20T10:15:18;100536.44;;;19.97;100.00
17383;BME280;8809;51.892;8.384;2023-07-20T10:17:53;100542.59;;;19.87;100.00
17383;BME280;8809;51.892;8.384;2023-07-20T10:20:25;100545.25;;;20.01;100.00
17383;BME280;8809;51.892;8.384;2023-07-20T10:22:55;100552.34;;;20.02;99.13
17383;BME280;8809;51.892;8.384;2023-07-20T10:25:24;100549.63;;;19.90;95.11
17383;BME280;8809;51.892;8.384;2023-07-20T10:27:51;100544.34;;;19.87;96.67
17383;BME280;8809;51.892;8.384;2023-07-20T10:30:19;100531.94;;;19.74;100.00
17383;BME280;8809;51.892;8.384;2023-07-20T10:32:49;100539.00;;;19.73;100.00
17383;BME280;8809;51.892;8.384;2023-07-20T10:35:18;100537.31;;;19.99;100.00
17383;BME280;8809;51.892;8.384;2023-07-20T10:37:51;100534.72;;;20.27;99.25
17383;BME280;8809;51.892;8.384;2023-07-20T10:40:32;100525.03;;;20.38;99.11
17383;BME280;8809;51.892;8.384;2023-07-20T10:43:00;100531.22;;;20.51;99.78
17383;BME280;8809;51.892;8.384;2023-07-20T10:45:50;100533.88;;;20.43;95.81
17383;BME280;8809;51.892;8.384;2023-07-20T10:48:19;100525.06;;;20.36;99.99
17383;BME280;8809;51.892;8.384;2023-07-20T10:51:11;100524.13;;;20.28;97.91
17383;BME280;8809;51.892;8.384;2023-07-20T10:53:41;100532.97;;;20.27;96.62
17383;BME280;8809;51.892;8.384;2023-07-20T10:56:12;100543.56;;;20.27;95.30
17383;BME280;8809;51.892;8.384;2023-07-20T10:58:40;100536.50;;;20.17;93.46
17383;BME280;8809;51.892;8.384;2023-07-20T11:01:17;100537.34;;;20.12;100.00
17383;BME280;8809;51.892;8.384;2023-07-20T11:03:49;100532.94;;;20.17;92.14
17383;BME280;8809;51.892;8.384;2023-07-20T11:06:31;100535.66;;;20.44;93.87
17383;BME280;8809;51.892;8.384;2023-07-20T11:09:07;100541.81;;;20.48;90.81
17383;BME280;8809;51.892;8.384;2023-07-20T11:11:38;100527.69;;;20.49;94.44
17383;BME280;8809;51.892;8.384;2023-07-20T11:14:07;100534.78;;;20.44;91.80
17383;BME280;8809;51.892;8.384;2023-07-20T11:16:36;100540.06;;;20.48;91.80
17383;BME280;8809;51.892;8.384;2023-07-20T11:19:05;100537.44;;;20.44;95.52
17383;BME280;8809;51.892;8.384;2023-07-20T11:21:40;100537.41;;;20.62;89.38
17383;BME280;8809;51.892;8.384;2023-07-20T11:24:08;100546.22;;;20.88;91.53
17383;BME280;8809;51.892;8.384;2023-07-20T11:26:45;100541.81;;;21.02;89.62
17383;BME280;8809;51.892;8.384;2023-07-20T11:29:13;100539.09;;;21.25;88.83
17383;BME280;8809;51.892;8.384;2023-07-20T11:31:41;100538.19;;;21.43;88.62
17383;BME280;8809;51.892;8.384;2023-07-20T11:34:11;100531.03;;;21.60;88.80
17383;BME280;8809;51.892;8.384;2023-07-20T11:36:40;100524.75;;;21.76;90.79
17383;BME280;8809;51.892;8.384;2023-07-20T11:39:09;100524.69;;;21.87;89.08
17383;BME280;8809;51.892;8.384;2023-07-20T11:41:38;100524.66;;;22.01;88.53
17383;BME280;8809;51.892;8.384;2023-07-20T11:44:10;100527.28;;;22.07;86.42
17383;BME280;8809;51.892;8.384;2023-07-20T11:46:39;100534.31;;;22.11;85.43
17383;BME280;8809;51.892;8.384;2023-07-20T11:49:06;100525.38;;;22.27;84.60
17383;BME280;8809;51.892;8.384;2023-07-20T11:51:34;100521.00;;;22.17;80.63
17383;BME280;8809;51.892;8.384;2023-07-20T11:54:02;100525.38;;;22.27;78.82
17383;BME280;8809;51.892;8.384;2023-07-20T11:56:30;100526.25;;;22.26;75.78
17383;BME280;8809;51.892;8.384;2023-07-20T11:58:58;100527.13;;;22.30;75.10
17383;BME280;8809;51.892;8.384;2023-07-20T12:01:30;100520.00;;;22.32;80.05
17383;BME280;8809;51.892;8.384;2023-07-20T12:04:00;100504.03;;;22.36;77.04
17383;BME280;8809;51.892;8.384;2023-07-20T12:06:29;100509.34;;;22.38;76.64
17383;BME280;8809;51.892;8.384;2023-07-20T12:08:59;100508.25;;;22.60;80.37
17383;BME280;8809;51.892;8.384;2023-07-20T12:11:35;100506.41;;;22.68;80.39
17383;BME280;8809;51.892;8.384;2023-07-20T12:14:03;100507.09;;;22.90;77.62
17383;BME280;8809;51.892;8.384;2023-07-20T12:16:35;100510.56;;;22.98;60.92
17383;BME280;8809;51.892;8.384;2023-07-20T12:19:05;100511.50;;;22.97;60.81
17383;BME280;8809;51.892;8.384;2023-07-20T12:21:34;100499.00;;;23.04;62.78
17383;BME280;8809;51.892;8.384;2023-07-20T12:24:03;100503.34;;;23.11;64.68
17383;BME280;8809;51.892;8.384;2023-07-20T12:26:33;100502.34;;;23.19;64.99
17383;BME280;8809;51.892;8.384;2023-07-20T12:29:01;100493.38;;;23.28;63.09
17383;BME280;8809;51.892;8.384;2023-07-20T12:31:30;100494.13;;;23.39;62.00
17383;BME280;8809;51.892;8.384;2023-07-20T12:33:59;100498.47;;;23.48;60.44
17383;BME280;8809;51.892;8.384;2023-07-20T12:36:26;100502.00;;;23.47;58.12
17383;BME280;8809;51.892;8.384;2023-07-20T12:38:53;100500.25;;;23.50;60.12
17383;BME280;8809;51.892;8.384;2023-07-20T12:41:21;100504.63;;;23.54;57.15
17383;BME280;8809;51.892;8.384;2023-07-20T12:43:48;100497.53;;;23.53;56.22
17383;BME280;8809;51.892;8.384;2023-07-20T12:46:15;100493.88;;;23.62;59.66
17383;BME280;8809;51.892;8.384;2023-07-20T12:48:44;100490.09;;;23.78;62.75
17383;BME280;8809;51.892;8.384;2023-07-20T12:51:13;100491.63;;;23.94;61.63
17383;BME280;8809;51.892;8.384;2023-07-20T12:53:41;100478.94;;;24.12;63.34
17383;BME280;8809;51.892;8.384;2023-07-20T12:56:08;100484.06;;;24.27;62.79
17383;BME280;8809;51.892;8.384;2023-07-20T12:58:37;100474.28;;;24.27;65.01
17383;BME280;8809;51.892;8.384;2023-07-20T13:01:04;100473.50;;;24.19;64.56